This is the latest recevied weather packets stored in our database for station/object W3BRL. If no packets are shown the sender has not sent any weather packets the latest 1 day(s).
| Time | Temp. | Humidity | Pressure | Rain* | Wind** | Luminosity | Snow |
|---|---|---|---|---|---|---|---|
| 1778014901 | 20° C | 63% | 1006.1 hPa | 0 mm | 0.89 m/s, 185° | 337 W/m² | - |
| 1778014598 | 19.44° C | 67% | 1006.1 hPa | 0 mm | 0.89 m/s, 176° | 370 W/m² | - |
| 1778014297 | 18.89° C | 67% | 1006 hPa | 0 mm | 1.34 m/s, 199° | 330 W/m² | - |
| 1778014003 | 18.89° C | 67% | 1006 hPa | 0 mm | 1.79 m/s, 191° | 238 W/m² | - |
| 1778013691 | 19.44° C | 64% | 1006.2 hPa | 0 mm | 2.24 m/s, 276° | 123 W/m² | - |
| 1778013388 | 21.67° C | 52% | 1006.1 hPa | 0 mm | 4.02 m/s, 293° | 45 W/m² | - |
| 1778013085 | 22.22° C | 48% | 1006 hPa | 0 mm | 1.34 m/s, 212° | 73 W/m² | - |
| 1778012780 | 22.22° C | 47% | 1005.8 hPa | 0 mm | 0.89 m/s, 172° | 91 W/m² | - |
| 1778012476 | 22.22° C | 47% | 1005.8 hPa | 0 mm | 0.89 m/s, 182° | 146 W/m² | - |
| 1778012173 | 22.22° C | 47% | 1005.9 hPa | 0 mm | 0.89 m/s, 210° | 121 W/m² | - |
| 1778011871 | 22.22° C | 47% | 1006 hPa | 0 mm | 1.79 m/s, 188° | 61 W/m² | - |
| 1778011569 | 22.22° C | 46% | 1005.9 hPa | 0 mm | 3.58 m/s, 203° | 79 W/m² | - |
| 1778011266 | 22.78° C | 46% | 1006.1 hPa | 0 mm | 1.34 m/s, 219° | 69 W/m² | - |
| 1778010961 | 22.78° C | 45% | 1006.3 hPa | 0 mm | 0.89 m/s, 179° | 85 W/m² | - |
| 1778010659 | 22.78° C | 44% | 1006 hPa | 0 mm | 3.13 m/s, 223° | 143 W/m² | - |
| 1778010356 | 22.78° C | 44% | 1006 hPa | 0 mm | 2.68 m/s, 227° | 114 W/m² | - |
| 1778010052 | 22.78° C | 44% | 1006.2 hPa | 0 mm | 4.02 m/s, 206° | 175 W/m² | - |
| 1778009749 | 22.78° C | 44% | 1006.1 hPa | 0 mm | 2.68 m/s, 224° | 226 W/m² | - |
| 1778009446 | 22.78° C | 44% | 1006.3 hPa | 0 mm | 1.79 m/s, 203° | 200 W/m² | - |
| 1778009145 | 22.78° C | 44% | 1006 hPa | 0 mm | 2.68 m/s, 197° | 232 W/m² | - |
| 1778008842 | 22.78° C | 43% | 1006.2 hPa | 0 mm | 5.36 m/s, 295° | 178 W/m² | - |
| 1778008540 | 22.78° C | 43% | 1006.3 hPa | 0 mm | 2.24 m/s, 226° | 207 W/m² | - |
| 1778008238 | 22.78° C | 43% | 1006.3 hPa | 0 mm | 3.13 m/s, 236° | 169 W/m² | - |
| 1778007938 | 23.33° C | 43% | 1006.2 hPa | 0 mm | 2.24 m/s, 215° | 239 W/m² | - |
| 1778007634 | 23.33° C | 43% | 1006.2 hPa | 0 mm | 2.24 m/s, 308° | 214 W/m² | - |
* Rain latest hour (hover to see other rain measurements)
** Current wind speed in m/s (hover to see current wind gust speed)